Time;durP1;ratioP1;P1;durP2;ratioP2;P2;SDS_P1;SDS_P2;PMS_P1;PMS_P2;Temp;Humidity;BMP_temperature;BMP_pressure;BME280_temperature;BME280_humidity;BME280_pressure;Samples;Min_cycle;Max_cycle;Signal;HPM_P1;HPM_P2
2022/08/21 00:00:11;;;;;;;8.65;1.00;;;15.60;99.90;;;;;;5011074;28;20670;-67
2022/08/21 00:02:49;;;;;;;3.67;0.80;;;15.60;99.90;;;;;;5011504;28;20194;-66
2022/08/21 00:05:20;;;;;;;3.08;1.20;;;15.70;99.90;;;;;;5003738;28;20207;-67
2022/08/21 00:07:50;;;;;;;4.97;1.33;;;15.90;99.90;;;;;;5010333;28;20203;-67
2022/08/21 00:10:23;;;;;;;4.35;1.40;;;15.90;99.90;;;;;;5010545;28;20206;-68
2022/08/21 00:12:55;;;;;;;18.58;10.55;;;16.00;99.90;;;;;;5009364;28;20191;-74
2022/08/21 00:15:30;;;;;;;30.75;20.50;;;16.00;99.90;;;;;;5001202;28;20199;-67
2022/08/21 00:18:01;;;;;;;26.60;15.88;;;15.90;99.90;;;;;;5007242;28;20205;-67
2022/08/21 00:20:32;;;;;;;7.05;2.97;;;16.00;99.90;;;;;;5003831;28;20219;-77
2022/08/21 00:23:03;;;;;;;3.83;1.60;;;16.00;99.90;;;;;;5011127;28;20641;-81
2022/08/21 00:25:36;;;;;;;6.35;2.00;;;16.10;99.90;;;;;;5011074;28;20199;-82
2022/08/21 00:28:08;;;;;;;6.63;1.60;;;16.30;99.90;;;;;;5011650;28;20205;-73
2022/08/21 00:30:39;;;;;;;3.28;1.33;;;16.40;99.90;;;;;;5012477;28;20736;-78
2022/08/21 00:33:10;;;;;;;6.60;1.90;;;16.50;99.90;;;;;;5006863;28;20223;-80
2022/08/21 00:35:43;;;;;;;6.30;2.50;;;16.70;99.90;;;;;;5011585;28;20201;-78
2022/08/21 00:38:14;;;;;;;4.47;0.98;;;16.80;99.90;;;;;;5011542;28;20229;-78
2022/08/21 00:40:50;;;;;;;2.67;0.90;;;16.80;99.90;;;;;;5010219;28;20219;-82
2022/08/21 00:43:25;;;;;;;4.93;1.30;;;16.80;99.90;;;;;;5011513;28;20243;-85
2022/08/21 00:45:56;;;;;;;4.28;1.50;;;16.80;99.90;;;;;;5009214;28;20202;-84
2022/08/21 00:48:27;;;;;;;8.45;1.23;;;16.90;99.90;;;;;;5005889;28;20195;-80
2022/08/21 00:51:02;;;;;;;4.60;1.00;;;17.00;99.90;;;;;;5008683;28;20199;-84
2022/08/21 00:53:33;;;;;;;2.60;0.95;;;17.00;99.90;;;;;;5012923;28;20193;-79
2022/08/21 00:56:07;;;;;;;4.38;1.90;;;17.00;99.90;;;;;;5015070;28;20183;-81
2022/08/21 00:58:38;;;;;;;8.43;3.28;;;17.10;99.90;;;;;;5010610;28;20206;-85
2022/08/21 01:01:10;;;;;;;3.30;1.10;;;17.10;99.90;;;;;;5002947;28;20199;-86
2022/08/21 01:03:42;;;;;;;8.52;4.35;;;17.10;99.90;;;;;;4995690;28;20199;-82
2022/08/21 01:06:13;;;;;;;6.40;3.67;;;17.30;99.90;;;;;;5011316;28;20199;-77
2022/08/21 01:08:44;;;;;;;7.82;3.80;;;17.40;99.90;;;;;;5012195;28;20305;-84
2022/08/21 01:11:18;;;;;;;5.03;2.22;;;17.50;99.90;;;;;;5008946;28;20198;-84
2022/08/21 01:13:51;;;;;;;2.65;1.45;;;17.50;99.90;;;;;;5012169;28;20628;-68
2022/08/21 01:16:24;;;;;;;4.85;1.38;;;17.60;99.90;;;;;;5003831;28;20286;-81
2022/08/21 01:18:55;;;;;;;3.72;0.90;;;17.60;99.90;;;;;;5011483;28;20229;-75
2022/08/21 01:21:30;;;;;;;2.08;1.00;;;17.50;99.90;;;;;;5007699;28;20674;-80
2022/08/21 01:24:01;;;;;;;3.47;0.90;;;17.60;99.90;;;;;;5012972;28;20206;-76
2022/08/21 01:26:35;;;;;;;2.75;0.80;;;17.60;99.90;;;;;;5012588;28;20203;-82
2022/08/21 01:29:14;;;;;;;2.05;0.70;;;17.70;99.90;;;;;;5008614;28;20210;-77
2022/08/21 01:31:44;;;;;;;3.08;0.77;;;17.90;99.90;;;;;;5010051;28;20227;-79
2022/08/21 01:34:16;;;;;;;3.88;0.80;;;18.00;99.90;;;;;;5004225;28;20278;-82
2022/08/21 01:36:49;;;;;;;2.63;0.68;;;18.10;99.90;;;;;;5009555;28;20242;-83
2022/08/21 01:39:20;;;;;;;3.67;1.20;;;18.20;99.90;;;;;;5011637;28;20214;-78
2022/08/21 01:41:51;;;;;;;3.17;0.77;;;18.20;99.90;;;;;;5010177;28;20257;-77
2022/08/21 01:44:25;;;;;;;2.70;0.70;;;18.30;99.90;;;;;;5013480;28;20191;-80
2022/08/21 01:46:56;;;;;;;1.83;0.57;;;18.30;99.90;;;;;;5010770;28;20206;-72
2022/08/21 01:49:27;;;;;;;2.50;1.08;;;18.40;99.90;;;;;;5005217;28;20200;-81
2022/08/21 01:52:00;;;;;;;1.95;0.82;;;18.40;99.90;;;;;;5009491;28;20658;-79
2022/08/21 01:54:31;;;;;;;1.02;0.50;;;18.30;99.90;;;;;;5011537;28;20209;-80
2022/08/21 01:57:02;;;;;;;1.65;0.80;;;18.40;99.90;;;;;;5004514;28;20195;-69
2022/08/21 01:59:35;;;;;;;1.85;0.60;;;18.50;99.90;;;;;;5007019;28;20313;-69
2022/08/21 02:02:06;;;;;;;2.47;0.60;;;18.60;99.90;;;;;;5001538;28;20196;-77
2022/08/21 02:04:36;;;;;;;3.45;0.57;;;18.40;99.90;;;;;;5006268;28;20662;-73
2022/08/21 02:07:09;;;;;;;1.85;0.75;;;18.40;99.90;;;;;;5007179;28;20209;-84
2022/08/21 02:09:41;;;;;;;2.65;0.80;;;18.40;99.90;;;;;;5007522;28;20207;-76
2022/08/21 02:12:12;;;;;;;3.95;0.70;;;18.40;99.90;;;;;;5011067;28;20203;-75
2022/08/21 02:14:43;;;;;;;1.42;0.57;;;18.40;99.90;;;;;;5008882;28;20203;-81
2022/08/21 02:17:14;;;;;;;3.78;0.65;;;18.30;99.90;;;;;;5007182;28;20218;-81
2022/08/21 02:19:44;;;;;;;2.30;0.60;;;18.20;99.90;;;;;;5009467;28;20595;-71
2022/08/21 02:22:17;;;;;;;1.20;0.57;;;18.30;99.90;;;;;;5008623;28;20237;-74
2022/08/21 02:24:48;;;;;;;1.67;0.57;;;18.40;99.90;;;;;;5006417;28;20207;-69
2022/08/21 02:27:19;;;;;;;1.65;0.50;;;18.30;99.90;;;;;;5006342;28;20210;-81
2022/08/21 02:29:49;;;;;;;2.90;0.55;;;18.50;99.90;;;;;;5006528;28;20234;-71
2022/08/21 02:32:21;;;;;;;1.42;0.60;;;18.70;99.90;;;;;;5005517;28;20237;-75
2022/08/21 02:34:52;;;;;;;1.95;0.80;;;18.80;99.90;;;;;;5006805;28;20199;-79
2022/08/21 02:37:25;;;;;;;1.65;0.68;;;18.90;99.90;;;;;;5005236;28;20225;-83
2022/08/21 02:39:55;;;;;;;3.63;0.60;;;19.10;99.90;;;;;;5007394;28;20211;-78
2022/08/21 02:42:26;;;;;;;3.53;0.80;;;19.00;99.90;;;;;;5006435;28;20199;-78
2022/08/21 02:44:57;;;;;;;0.75;0.50;;;19.10;99.90;;;;;;5006125;28;20557;-82
2022/08/21 02:47:28;;;;;;;1.63;0.60;;;19.00;99.90;;;;;;5005661;28;20201;-82
2022/08/21 02:49:58;;;;;;;1.88;0.70;;;19.10;99.90;;;;;;5005656;28;20207;-81
2022/08/21 02:52:31;;;;;;;3.35;0.80;;;19.10;99.90;;;;;;5007828;28;20195;-79
2022/08/21 02:55:02;;;;;;;2.30;0.60;;;19.00;99.90;;;;;;5003485;28;20207;-85
2022/08/21 02:57:33;;;;;;;1.50;0.73;;;18.90;99.90;;;;;;5004354;28;20667;-82
2022/08/21 03:00:03;;;;;;;3.45;0.98;;;18.90;99.90;;;;;;5004181;28;20557;-84
2022/08/21 03:02:34;;;;;;;2.33;0.77;;;18.90;99.90;;;;;;5000651;28;20207;-77
2022/08/21 03:05:05;;;;;;;2.42;0.50;;;19.00;99.90;;;;;;5001828;28;20567;-81
2022/08/21 03:07:38;;;;;;;0.82;0.60;;;18.80;99.90;;;;;;5007081;28;20556;-80
2022/08/21 03:10:10;;;;;;;2.13;0.65;;;18.80;99.90;;;;;;5001202;28;20202;-76
2022/08/21 03:12:40;;;;;;;2.55;0.70;;;18.70;99.90;;;;;;5004190;28;20689;-73
2022/08/21 03:15:14;;;;;;;1.90;0.70;;;18.70;99.90;;;;;;5009019;28;20674;-69
2022/08/21 03:17:44;;;;;;;1.75;0.50;;;18.70;99.90;;;;;;5008357;28;20198;-69
2022/08/21 03:20:16;;;;;;;1.85;0.70;;;18.70;99.90;;;;;;5005527;28;20222;-80
2022/08/21 03:22:49;;;;;;;3.33;0.60;;;18.80;99.90;;;;;;5005334;28;20309;-73
2022/08/21 03:25:20;;;;;;;3.85;0.88;;;18.80;99.90;;;;;;5005644;28;20550;-73
2022/08/21 03:27:51;;;;;;;2.10;0.70;;;18.90;99.90;;;;;;5009419;28;20218;-78
2022/08/21 03:30:23;;;;;;;2.88;1.02;;;18.90;99.90;;;;;;5004514;28;20207;-79
2022/08/21 03:32:55;;;;;;;2.08;0.70;;;18.90;99.90;;;;;;5006193;28;20241;-83
2022/08/21 03:35:25;;;;;;;1.45;0.60;;;18.90;99.90;;;;;;5008637;28;20199;-76
2022/08/21 03:37:58;;;;;;;2.10;0.60;;;18.80;99.90;;;;;;4988270;28;20263;-82
2022/08/21 03:40:29;;;;;;;2.03;0.82;;;18.70;99.90;;;;;;4996903;28;20211;-71
2022/08/21 03:43:00;;;;;;;2.70;0.73;;;18.80;99.90;;;;;;5004846;28;20199;-85
2022/08/21 03:45:32;;;;;;;1.10;0.60;;;18.90;99.90;;;;;;5008416;28;20257;-87
2022/08/21 03:48:04;;;;;;;0.68;0.52;;;18.90;99.90;;;;;;5011838;28;20194;-85
2022/08/21 03:50:36;;;;;;;2.00;0.77;;;19.00;99.90;;;;;;5011185;28;20203;-68
2022/08/21 03:53:10;;;;;;;5.40;4.05;;;19.00;99.90;;;;;;5011081;28;20195;-71
2022/08/21 03:55:41;;;;;;;2.47;1.65;;;19.00;99.90;;;;;;5010380;28;20678;-70
2022/08/21 03:58:12;;;;;;;3.75;2.25;;;18.90;99.90;;;;;;5010536;28;20199;-68
2022/08/21 04:00:42;;;;;;;2.45;1.00;;;18.80;99.90;;;;;;5009828;28;20218;-73
2022/08/21 04:03:13;;;;;;;3.85;1.42;;;18.90;99.90;;;;;;5010897;28;20187;-68
2022/08/21 04:05:45;;;;;;;1.85;0.75;;;18.70;99.90;;;;;;5010106;28;20205;-69
2022/08/21 04:08:19;;;;;;;2.15;0.82;;;18.50;99.90;;;;;;5010294;28;20207;-70
2022/08/21 04:10:54;;;;;;;1.45;0.60;;;18.50;99.90;;;;;;5009895;28;20240;-72
2022/08/21 04:13:26;;;;;;;1.67;0.57;;;18.50;99.90;;;;;;5009610;28;20202;-69
2022/08/21 04:15:57;;;;;;;2.95;0.63;;;18.70;99.90;;;;;;5010488;28;20203;-69
2022/08/21 04:18:28;;;;;;;1.65;0.70;;;18.70;99.90;;;;;;5010006;28;20218;-68
2022/08/21 04:21:01;;;;;;;1.10;0.50;;;18.60;99.90;;;;;;5008650;28;20223;-69
2022/08/21 04:23:34;;;;;;;1.55;0.40;;;18.70;99.90;;;;;;5011039;28;20215;-69
2022/08/21 04:26:06;;;;;;;1.83;0.60;;;18.70;99.90;;;;;;5012385;28;20202;-75
2022/08/21 04:28:36;;;;;;;1.65;0.73;;;18.70;99.90;;;;;;5014577;28;20187;-68
2022/08/21 04:31:07;;;;;;;1.35;0.55;;;18.70;99.90;;;;;;5008710;28;20223;-71
2022/08/21 04:33:38;;;;;;;1.42;0.68;;;18.70;99.90;;;;;;5014669;28;20191;-69
2022/08/21 04:36:09;;;;;;;1.42;0.80;;;18.70;99.90;;;;;;5012283;28;20195;-71
2022/08/21 04:38:42;;;;;;;2.33;0.50;;;18.60;99.90;;;;;;5007214;28;20677;-68
2022/08/21 04:41:13;;;;;;;0.63;0.60;;;18.60;99.90;;;;;;5013397;28;20221;-68
2022/08/21 04:43:44;;;;;;;0.88;0.50;;;18.50;99.90;;;;;;5013380;28;20313;-67
2022/08/21 04:46:15;;;;;;;1.65;0.50;;;18.60;99.90;;;;;;5015060;28;20261;-68
2022/08/21 04:48:45;;;;;;;2.47;0.52;;;18.50;99.90;;;;;;5013671;28;20205;-72
2022/08/21 04:51:19;;;;;;;0.68;0.50;;;18.60;99.90;;;;;;5014065;28;20195;-68
2022/08/21 04:53:54;;;;;;;2.63;0.55;;;18.60;99.90;;;;;;5012857;28;20710;-71
2022/08/21 04:56:27;;;;;;;1.58;0.50;;;18.50;99.90;;;;;;5010673;28;20193;-72
2022/08/21 04:58:59;;;;;;;0.70;0.40;;;18.50;99.90;;;;;;5010941;28;20195;-69
2022/08/21 05:01:32;;;;;;;1.38;0.50;;;18.50;99.90;;;;;;5013987;28;20207;-68
2022/08/21 05:04:06;;;;;;;1.23;0.60;;;18.60;99.90;;;;;;5008456;28;20192;-68
2022/08/21 05:06:40;;;;;;;1.13;0.50;;;18.60;99.90;;;;;;5009927;28;20198;-75
2022/08/21 05:09:15;;;;;;;2.15;0.70;;;18.50;99.90;;;;;;5006870;28;20662;-76
2022/08/21 05:11:46;;;;;;;1.30;0.60;;;18.50;99.90;;;;;;5014003;28;20642;-69
2022/08/21 05:14:17;;;;;;;3.38;0.75;;;18.50;99.90;;;;;;5010599;28;20195;-70
2022/08/21 05:16:48;;;;;;;4.72;0.95;;;18.40;99.90;;;;;;5011873;28;20207;-68
2022/08/21 05:19:19;;;;;;;3.70;0.80;;;18.40;99.90;;;;;;5006178;28;20198;-69
2022/08/21 05:21:50;;;;;;;3.10;0.80;;;18.30;99.90;;;;;;5014032;28;20214;-69
2022/08/21 05:24:22;;;;;;;3.95;0.90;;;18.30;99.90;;;;;;5012322;28;20199;-74
2022/08/21 05:26:53;;;;;;;5.63;3.15;;;18.30;99.90;;;;;;5012894;28;20209;-68
2022/08/21 05:29:24;;;;;;;4.90;1.23;;;18.20;99.90;;;;;;5013518;28;20209;-73
2022/08/21 05:31:55;;;;;;;3.17;0.90;;;18.20;99.90;;;;;;5011945;28;20302;-68
2022/08/21 05:34:26;;;;;;;4.00;0.75;;;18.00;99.90;;;;;;5011665;28;20199;-68
2022/08/21 05:36:57;;;;;;;5.40;1.13;;;17.90;99.90;;;;;;5011539;28;20596;-70
2022/08/21 05:39:29;;;;;;;4.22;0.88;;;17.70;99.90;;;;;;5010505;28;20198;-74
2022/08/21 05:42:00;;;;;;;4.05;0.90;;;17.60;99.90;;;;;;5010520;28;20222;-69
2022/08/21 05:44:31;;;;;;;3.28;0.70;;;17.40;99.90;;;;;;5010704;28;20202;-73
2022/08/21 05:47:07;;;;;;;5.22;1.30;;;17.40;99.90;;;;;;5008907;28;20199;-68
2022/08/21 05:49:38;;;;;;;3.60;1.15;;;17.40;99.90;;;;;;5008166;28;20205;-68
2022/08/21 05:52:09;;;;;;;2.90;1.10;;;17.30;99.90;;;;;;5011807;28;20654;-68
2022/08/21 05:54:42;;;;;;;6.85;0.80;;;17.20;99.90;;;;;;5012812;28;20187;-70
2022/08/21 05:57:13;;;;;;;4.25;1.17;;;17.10;99.90;;;;;;5011968;28;20199;-76
2022/08/21 05:59:44;;;;;;;5.20;1.55;;;17.10;99.90;;;;;;5011559;28;20593;-72
2022/08/21 06:02:14;;;;;;;3.85;1.00;;;17.00;99.90;;;;;;5012569;28;20218;-70
2022/08/21 06:04:45;;;;;;;3.90;1.00;;;16.90;99.90;;;;;;5011927;28;20199;-68
2022/08/21 06:07:16;;;;;;;2.00;0.93;;;16.80;99.90;;;;;;5013040;28;20195;-71
2022/08/21 06:09:49;;;;;;;4.35;0.85;;;16.80;99.90;;;;;;5012509;28;20556;-68
2022/08/21 06:12:19;;;;;;;4.03;0.82;;;16.80;99.90;;;;;;5007313;28;20197;-69
2022/08/21 06:14:51;;;;;;;4.78;0.90;;;16.80;99.90;;;;;;5012152;28;20213;-68
2022/08/21 06:17:22;;;;;;;3.00;0.90;;;16.70;99.90;;;;;;5011429;28;20578;-73
2022/08/21 06:19:55;;;;;;;2.55;0.80;;;16.60;99.90;;;;;;5009578;28;20325;-70
2022/08/21 06:22:26;;;;;;;6.28;0.90;;;16.50;99.90;;;;;;5005749;28;20210;-69
2022/08/21 06:24:59;;;;;;;4.78;1.10;;;16.40;99.90;;;;;;5013228;28;20206;-81
2022/08/21 06:27:29;;;;;;;3.60;1.00;;;16.50;99.90;;;;;;5004929;28;20195;-79
2022/08/21 06:30:01;;;;;;;4.32;1.05;;;16.50;99.90;;;;;;5010791;28;20199;-68
2022/08/21 06:32:32;;;;;;;7.20;1.00;;;16.50;99.90;;;;;;5010857;28;20219;-76
2022/08/21 06:35:02;;;;;;;2.95;0.95;;;16.40;99.90;;;;;;5011097;28;20207;-67
2022/08/21 06:37:33;;;;;;;4.35;0.90;;;16.40;99.90;;;;;;5012435;28;20240;-71
2022/08/21 06:40:06;;;;;;;8.60;0.93;;;16.40;99.90;;;;;;5010183;28;20207;-67
2022/08/21 06:42:37;;;;;;;2.90;0.90;;;16.30;99.90;;;;;;5010544;28;21070;-68
2022/08/21 06:45:09;;;;;;;4.20;0.80;;;16.30;99.90;;;;;;5008051;28;20199;-67
2022/08/21 06:47:39;;;;;;;2.70;0.82;;;16.20;99.90;;;;;;5011880;28;21612;-68
2022/08/21 06:50:11;;;;;;;3.92;1.00;;;16.20;99.90;;;;;;5011085;28;20744;-67
2022/08/21 06:52:42;;;;;;;3.38;0.90;;;16.10;99.90;;;;;;5010774;28;20301;-71
2022/08/21 06:55:15;;;;;;;8.15;1.15;;;16.10;99.90;;;;;;5011710;28;20199;-68
2022/08/21 06:57:45;;;;;;;1.45;0.80;;;16.10;99.90;;;;;;5011870;28;20205;-67
2022/08/21 07:00:17;;;;;;;7.18;1.35;;;16.10;99.90;;;;;;5012412;28;20187;-69
2022/08/21 07:02:47;;;;;;;2.40;0.77;;;16.10;99.90;;;;;;5011802;28;20690;-70
2022/08/21 07:05:18;;;;;;;5.30;0.93;;;16.00;99.90;;;;;;5011114;28;20195;-73
2022/08/21 07:07:49;;;;;;;4.07;1.30;;;16.00;99.90;;;;;;5010618;28;20199;-77
2022/08/21 07:10:22;;;;;;;7.10;1.30;;;15.90;99.90;;;;;;5011917;28;20564;-81
2022/08/21 07:12:54;;;;;;;4.72;1.00;;;15.90;99.90;;;;;;5010484;28;20203;-71
2022/08/21 07:15:25;;;;;;;4.25;0.90;;;15.90;99.90;;;;;;5006645;28;20203;-79
2022/08/21 07:17:56;;;;;;;4.05;0.82;;;15.80;99.90;;;;;;5009695;28;20195;-82
2022/08/21 07:20:27;;;;;;;4.05;0.90;;;15.80;99.90;;;;;;5011956;28;20522;-84
2022/08/21 07:22:59;;;;;;;4.03;0.82;;;15.70;99.90;;;;;;5012100;28;20221;-85
2022/08/21 07:25:31;;;;;;;4.32;1.20;;;15.70;99.90;;;;;;5012423;28;20195;-81
2022/08/21 07:28:02;;;;;;;5.68;1.10;;;15.70;99.90;;;;;;5012293;28;20191;-81
2022/08/21 07:30:33;;;;;;;3.50;1.15;;;15.60;99.90;;;;;;5007852;28;20230;-78
2022/08/21 07:33:04;;;;;;;3.13;1.00;;;15.50;99.90;;;;;;5011497;28;20207;-79
2022/08/21 07:35:35;;;;;;;3.35;1.05;;;15.50;99.90;;;;;;5012494;28;20192;-78
2022/08/21 07:38:06;;;;;;;7.05;1.00;;;15.40;99.90;;;;;;5007385;28;20746;-70
2022/08/21 07:40:38;;;;;;;2.50;0.93;;;15.40;99.90;;;;;;5011638;28;20233;-73
2022/08/21 07:43:09;;;;;;;3.70;1.33;;;15.30;99.90;;;;;;5012203;28;20187;-70
2022/08/21 07:45:40;;;;;;;1.60;0.77;;;15.30;99.90;;;;;;5006253;28;20643;-72
2022/08/21 07:48:11;;;;;;;5.07;0.85;;;15.20;99.90;;;;;;5010397;28;20560;-74
2022/08/21 07:50:42;;;;;;;3.33;0.90;;;15.20;99.90;;;;;;5010663;28;20299;-77
2022/08/21 07:53:13;;;;;;;2.72;0.90;;;15.20;99.90;;;;;;5011668;28;20298;-79
2022/08/21 07:55:45;;;;;;;4.82;0.90;;;15.10;99.90;;;;;;5009743;28;20202;-72
2022/08/21 07:58:17;;;;;;;5.82;1.00;;;15.10;99.90;;;;;;5014573;28;20288;-67
2022/08/21 08:00:47;;;;;;;4.50;0.82;;;15.00;99.90;;;;;;5012242;28;20217;-71
2022/08/21 08:03:18;;;;;;;2.58;1.08;;;15.00;99.90;;;;;;5012979;28;20205;-68
2022/08/21 08:05:49;;;;;;;1.38;0.88;;;15.00;99.90;;;;;;5013587;28;20198;-68
2022/08/21 08:08:20;;;;;;;3.40;1.10;;;14.90;99.90;;;;;;5014020;28;20576;-68
2022/08/21 08:10:53;;;;;;;4.78;1.05;;;14.90;99.90;;;;;;5012529;28;20191;-68
2022/08/21 08:13:23;;;;;;;3.10;0.90;;;14.80;99.90;;;;;;5011591;28;20195;-68
2022/08/21 08:15:54;;;;;;;3.75;1.00;;;14.80;99.90;;;;;;5010569;28;20199;-68
2022/08/21 08:18:25;;;;;;;3.50;1.00;;;14.80;99.90;;;;;;5014994;28;20209;-70
2022/08/21 08:20:58;;;;;;;3.08;0.90;;;14.80;99.90;;;;;;5014214;28;20192;-76
2022/08/21 08:23:30;;;;;;;4.13;1.05;;;14.70;99.90;;;;;;5012522;28;20674;-68
2022/08/21 08:26:03;;;;;;;3.17;0.90;;;14.70;99.90;;;;;;5013243;28;20793;-69
2022/08/21 08:28:34;;;;;;;4.55;0.98;;;14.70;99.90;;;;;;5013766;28;20276;-71
2022/08/21 08:31:05;;;;;;;3.65;1.40;;;14.60;99.90;;;;;;5006259;28;20248;-68
2022/08/21 08:33:36;;;;;;;7.10;1.30;;;14.60;99.90;;;;;;5011316;28;20198;-68
2022/08/21 08:36:07;;;;;;;4.00;1.30;;;14.60;99.90;;;;;;5012656;28;20214;-68
2022/08/21 08:38:38;;;;;;;3.08;1.00;;;14.50;99.90;;;;;;5015136;28;20564;-72
2022/08/21 08:41:16;;;;;;;5.65;1.20;;;14.50;99.90;;;;;;5013742;28;20575;-67
2022/08/21 08:43:55;;;;;;;2.90;1.00;;;14.50;99.90;;;;;;5011654;28;20581;-68
2022/08/21 08:46:34;;;;;;;3.63;1.25;;;14.50;99.90;;;;;;5015019;28;20191;-69
2022/08/21 08:49:12;;;;;;;2.60;1.10;;;14.40;99.90;;;;;;5006645;28;20202;-68
2022/08/21 08:51:49;;;;;;;5.00;1.40;;;14.40;99.90;;;;;;5013112;28;20198;-75
2022/08/21 08:54:26;;;;;;;3.90;1.15;;;14.40;99.90;;;;;;5012983;28;20199;-68
2022/08/21 08:56:58;;;;;;;6.45;1.52;;;14.40;99.90;;;;;;5012989;28;20199;-69
2022/08/21 08:59:35;;;;;;;4.38;1.40;;;14.30;99.90;;;;;;5014759;28;20195;-67
2022/08/21 09:02:06;;;;;;;4.65;1.40;;;14.30;99.90;;;;;;5013541;28;20225;-68
2022/08/21 09:04:36;;;;;;;5.88;1.77;;;14.30;99.90;;;;;;5013555;28;20205;-68
2022/08/21 09:07:18;;;;;;;2.70;1.30;;;14.30;99.90;;;;;;5010160;28;20203;-68
2022/08/21 09:10:04;;;;;;;4.07;1.50;;;14.30;99.90;;;;;;5012675;28;20194;-69
2022/08/21 09:12:48;;;;;;;4.97;1.25;;;14.30;99.90;;;;;;5014123;28;20226;-68
2022/08/21 09:15:28;;;;;;;3.38;1.42;;;14.20;99.90;;;;;;5012428;28;20676;-68
2022/08/21 09:18:16;;;;;;;6.63;1.65;;;14.20;99.90;;;;;;5010954;28;20596;-68
2022/08/21 09:21:03;;;;;;;1.95;1.23;;;14.20;99.90;;;;;;5013383;28;20199;-68
2022/08/21 09:23:45;;;;;;;4.50;1.42;;;14.20;99.90;;;;;;5012574;28;20221;-67
2022/08/21 09:26:19;;;;;;;7.10;1.85;;;14.10;99.90;;;;;;5013446;28;20198;-67
2022/08/21 09:28:56;;;;;;;3.28;1.30;;;14.10;99.90;;;;;;5013680;28;20198;-68
2022/08/21 09:31:30;;;;;;;5.25;1.50;;;14.10;99.90;;;;;;5001156;28;20233;-68
2022/08/21 09:34:06;;;;;;;6.05;1.45;;;14.10;99.90;;;;;;5010877;28;20203;-68
2022/08/21 09:36:43;;;;;;;5.45;1.90;;;14.00;99.90;;;;;;5013142;28;20236;-68
2022/08/21 09:39:15;;;;;;;4.97;1.60;;;14.00;99.90;;;;;;5013255;28;20591;-68
2022/08/21 09:41:46;;;;;;;9.23;1.60;;;14.00;99.90;;;;;;5012820;28;20215;-72
2022/08/21 09:44:28;;;;;;;4.43;1.60;;;13.90;99.90;;;;;;5007618;28;20203;-69
2022/08/21 09:47:00;;;;;;;3.40;1.60;;;13.90;99.90;;;;;;5011337;28;20237;-71
2022/08/21 09:49:32;;;;;;;4.75;1.33;;;13.90;99.90;;;;;;5012143;28;20258;-69
2022/08/21 09:52:04;;;;;;;5.22;1.50;;;13.90;99.90;;;;;;5012832;28;20207;-68
2022/08/21 09:54:37;;;;;;;2.70;1.50;;;13.90;99.90;;;;;;5011492;28;20203;-69
2022/08/21 10:00:27;;;;;;;7.68;1.50;;;13.80;99.90;;;;;;4998638;28;20271;-68
2022/08/21 10:02:58;;;;;;;3.67;1.45;;;13.80;99.90;;;;;;5011080;28;20223;-73
2022/08/21 10:05:30;;;;;;;2.38;1.30;;;13.80;99.90;;;;;;5011971;28;20214;-68
2022/08/21 10:08:00;;;;;;;4.95;1.30;;;13.80;99.90;;;;;;5011587;28;20685;-70
2022/08/21 10:10:33;;;;;;;2.67;1.08;;;13.80;99.90;;;;;;5011911;28;20187;-70
2022/08/21 10:13:11;;;;;;;3.38;0.93;;;13.80;99.90;;;;;;5012302;28;20203;-68
2022/08/21 10:16:05;;;;;;;2.78;1.17;;;13.80;99.90;;;;;;5012964;28;20206;-76
2022/08/21 10:18:42;;;;;;;5.60;1.30;;;13.70;99.90;;;;;;5011477;28;20203;-68
2022/08/21 10:21:20;;;;;;;3.13;1.17;;;13.70;99.90;;;;;;5012760;28;20539;-69
2022/08/21 10:24:06;;;;;;;3.92;1.20;;;13.70;99.90;;;;;;5009612;28;20257;-67
2022/08/21 10:26:55;;;;;;;4.97;1.13;;;13.70;99.90;;;;;;5009839;28;20194;-77
2022/08/21 10:29:47;;;;;;;7.72;3.15;;;13.70;99.90;;;;;;5009027;28;20207;-69
2022/08/21 10:32:29;;;;;;;12.15;6.03;;;13.70;99.90;;;;;;5009586;28;20221;-71
2022/08/21 10:35:09;;;;;;;5.47;1.40;;;13.60;99.90;;;;;;5009916;28;20723;-68
2022/08/21 10:38:04;;;;;;;4.32;1.63;;;13.70;99.90;;;;;;5012161;28;20235;-69
2022/08/21 10:40:41;;;;;;;3.58;1.40;;;13.60;99.90;;;;;;5009487;28;20199;-68
2022/08/21 10:43:24;;;;;;;2.75;1.30;;;13.60;99.90;;;;;;5010037;28;20245;-71
2022/08/21 10:46:09;;;;;;;2.45;1.40;;;13.60;99.90;;;;;;5008241;28;20231;-73
2022/08/21 10:48:49;;;;;;;3.92;2.00;;;13.60;99.90;;;;;;5010944;28;20194;-69
2022/08/21 10:51:29;;;;;;;5.45;1.50;;;13.50;99.90;;;;;;5011846;28;20558;-70
2022/08/21 10:54:10;;;;;;;2.80;1.20;;;13.50;99.90;;;;;;5010843;28;20206;-69
2022/08/21 10:56:43;;;;;;;5.75;1.35;;;13.50;99.90;;;;;;5007097;28;20199;-68
2022/08/21 10:59:29;;;;;;;4.55;1.27;;;13.50;99.90;;;;;;5006781;28;20199;-69
2022/08/21 11:02:05;;;;;;;3.85;1.30;;;13.50;99.90;;;;;;5004851;28;20211;-69
2022/08/21 11:04:48;;;;;;;3.53;1.10;;;13.40;99.90;;;;;;5005288;28;20282;-77
2022/08/21 11:07:25;;;;;;;3.33;1.08;;;13.30;99.90;;;;;;5005460;28;20674;-68
2022/08/21 11:10:00;;;;;;;5.05;1.13;;;13.30;99.90;;;;;;5003971;28;20198;-72
2022/08/21 11:12:38;;;;;;;2.70;1.20;;;13.30;99.90;;;;;;5010859;28;20202;-71
2022/08/21 11:15:18;;;;;;;3.75;1.33;;;13.20;99.90;;;;;;5007631;28;20191;-72
2022/08/21 11:17:55;;;;;;;2.63;1.33;;;13.10;99.90;;;;;;5004762;28;20206;-69
2022/08/21 11:20:35;;;;;;;3.63;1.45;;;13.10;99.90;;;;;;5005363;28;20572;-70
2022/08/21 11:23:13;;;;;;;2.03;1.02;;;13.10;99.90;;;;;;5009738;28;20678;-68
2022/08/21 11:25:51;;;;;;;4.55;1.40;;;13.00;99.90;;;;;;5005936;28;20245;-68
2022/08/21 11:28:34;;;;;;;2.25;1.10;;;12.90;99.90;;;;;;5005374;28;21219;-82
2022/08/21 11:31:30;;;;;;;1.67;1.08;;;12.80;99.90;;;;;;5007470;28;20218;-69
2022/08/21 11:34:13;;;;;;;2.17;1.08;;;12.80;99.90;;;;;;5006878;28;20198;-68
2022/08/21 11:36:50;;;;;;;3.22;1.20;;;12.80;99.90;;;;;;5007894;28;20230;-81
2022/08/21 11:39:28;;;;;;;2.08;1.02;;;12.80;99.90;;;;;;5006405;28;20202;-70
2022/08/21 11:42:10;;;;;;;4.47;1.00;;;12.80;99.90;;;;;;5005998;28;20199;-68
2022/08/21 11:44:56;;;;;;;4.70;1.17;;;12.80;99.90;;;;;;5001900;28;20202;-68
2022/08/21 11:47:39;;;;;;;3.45;1.23;;;12.80;99.90;;;;;;5001335;28;20209;-69
2022/08/21 11:50:18;;;;;;;3.38;0.93;;;12.80;99.90;;;;;;5003699;28;20187;-68
2022/08/21 11:52:55;;;;;;;3.88;1.00;;;12.80;99.90;;;;;;5004737;28;20191;-72
2022/08/21 11:55:33;;;;;;;3.65;1.08;;;12.80;99.90;;;;;;5004858;28;20199;-68
2022/08/21 11:58:08;;;;;;;5.05;1.02;;;12.80;99.90;;;;;;5004747;28;20195;-77
2022/08/21 12:00:43;;;;;;;4.53;1.00;;;12.80;99.90;;;;;;5006102;28;20200;-70
2022/08/21 12:03:18;;;;;;;4.30;1.08;;;12.80;99.90;;;;;;5007943;28;20206;-69
2022/08/21 12:05:59;;;;;;;3.72;1.10;;;12.90;99.90;;;;;;5003872;28;20206;-76
2022/08/21 12:08:38;;;;;;;3.78;1.00;;;12.80;99.90;;;;;;5004584;28;20201;-70
2022/08/21 12:11:10;;;;;;;3.28;1.00;;;12.80;99.90;;;;;;5001714;28;20195;-68
2022/08/21 12:13:54;;;;;;;5.15;1.30;;;12.80;99.90;;;;;;5002918;28;20202;-68
2022/08/21 12:16:33;;;;;;;3.65;0.95;;;12.80;99.90;;;;;;5001632;28;20289;-68
2022/08/21 12:19:09;;;;;;;3.17;0.90;;;12.80;99.90;;;;;;5006157;28;20207;-70
2022/08/21 12:21:53;;;;;;;4.80;0.90;;;12.80;99.90;;;;;;5004297;28;20198;-76
2022/08/21 12:24:38;;;;;;;3.28;1.17;;;12.70;99.90;;;;;;5003548;28;20222;-69
2022/08/21 12:27:26;;;;;;;2.33;1.05;;;12.70;99.90;;;;;;4999859;28;20204;-75
2022/08/21 12:30:00;;;;;;;6.00;1.20;;;12.70;99.90;;;;;;5000407;28;20199;-72
2022/08/21 12:32:32;;;;;;;2.88;0.98;;;12.70;99.90;;;;;;5003349;28;20192;-68
2022/08/21 12:35:13;;;;;;;5.32;1.50;;;12.70;99.90;;;;;;5008366;28;20209;-68
2022/08/21 12:37:45;;;;;;;3.33;1.08;;;12.70;99.90;;;;;;5005489;28;20254;-70
2022/08/21 12:40:24;;;;;;;5.65;1.15;;;12.70;99.90;;;;;;4999076;28;20667;-68
2022/08/21 12:42:57;;;;;;;3.55;1.23;;;12.70;99.90;;;;;;5000297;28;20690;-68
2022/08/21 12:45:33;;;;;;;4.45;1.25;;;12.70;99.90;;;;;;5011146;28;20195;-78
2022/08/21 12:48:08;;;;;;;2.17;1.02;;;12.70;99.90;;;;;;5004071;28;20195;-69
2022/08/21 12:50:42;;;;;;;5.20;1.10;;;12.70;99.90;;;;;;5005899;28;20202;-68
2022/08/21 12:53:26;;;;;;;5.13;1.45;;;12.60;99.90;;;;;;5008466;28;20200;-71
2022/08/21 12:56:01;;;;;;;4.57;1.30;;;12.50;99.90;;;;;;5002389;28;20206;-79
2022/08/21 12:58:32;;;;;;;3.92;1.23;;;12.50;99.90;;;;;;5007332;28;20253;-73
2022/08/21 13:01:07;;;;;;;3.42;1.30;;;12.50;99.90;;;;;;5006715;28;20201;-67
2022/08/21 13:03:40;;;;;;;4.47;1.58;;;12.50;99.90;;;;;;5007044;28;20728;-71
2022/08/21 13:06:16;;;;;;;5.35;1.17;;;12.50;99.90;;;;;;5006585;28;20205;-69
2022/08/21 13:08:48;;;;;;;3.22;1.10;;;12.50;99.90;;;;;;5007912;28;20207;-68
2022/08/21 13:11:24;;;;;;;4.53;1.20;;;12.50;99.90;;;;;;5004913;28;20195;-69
2022/08/21 13:13:56;;;;;;;3.78;1.40;;;12.50;99.90;;;;;;5007092;28;20198;-69
2022/08/21 13:16:30;;;;;;;2.90;1.45;;;12.50;99.90;;;;;;5006849;28;20194;-68
2022/08/21 13:19:03;;;;;;;4.40;1.30;;;12.50;99.90;;;;;;5011356;28;20199;-69
2022/08/21 13:21:36;;;;;;;4.70;1.42;;;12.50;99.90;;;;;;5011740;28;20199;-71